N22318 -GA04
Flight info
| Callsign | N22318 |
|---|---|
| Flight time | N/A |
| Altitude | |
| Route | |
| Aircraft |
Departure
| Time | N/A |
|---|---|
| Airport | - |
Arrival
| Time | 2026-05-08 16:01 |
|---|---|
| Airport | Mallards Landing Airport (GA04) |
| Time | Latitude | Longitude | Altitude | Speed | Heading |
|---|---|---|---|---|---|
| 2026-05-08 15:34 | 33.89751 | -84.02003 | 2729 ft | 113 kts | 197° |
| 2026-05-08 15:35 | 33.89217 | -84.02276 | 2655 ft | 112 kts | 200° |
| 2026-05-08 15:36 | 33.88901 | -84.02440 | 3017 ft | 46 kts | 198° |
| 2026-05-08 15:36 | 33.88766 | -84.02513 | 2963 ft | 74 kts | 198° |
| 2026-05-08 15:36 | 33.88301 | -84.02758 | 2900 ft | 92 kts | 197° |
| 2026-05-08 15:37 | 33.87700 | -84.03047 | 2940 ft | 92 kts | 197° |
| 2026-05-08 15:37 | 33.87075 | -84.03365 | 2852 ft | 102 kts | 205° |
| 2026-05-08 15:37 | 33.86459 | -84.03748 | 2894 ft | 99 kts | 201° |
| 2026-05-08 15:37 | 33.85861 | -84.04170 | 2929 ft | 96 kts | 208° |
| 2026-05-08 15:38 | 33.85319 | -84.04576 | 3044 ft | 90 kts | 206° |
| 2026-05-08 15:38 | 33.84778 | -84.04967 | 3052 ft | 94 kts | 204° |
| 2026-05-08 15:38 | 33.84217 | -84.05372 | 3068 ft | 93 kts | 205° |
| 2026-05-08 15:38 | 33.83696 | -84.05776 | 3203 ft | 85 kts | 203° |
| 2026-05-08 15:39 | 33.83167 | -84.06196 | 3219 ft | 93 kts | 209° |
| 2026-05-08 15:39 | 33.82632 | -84.06639 | 3287 ft | 89 kts | 204° |
| 2026-05-08 15:39 | 33.82081 | -84.07042 | 3317 ft | 95 kts | 202° |
| 2026-05-08 15:39 | 33.81543 | -84.07444 | 3446 ft | 90 kts | 203° |
| 2026-05-08 15:40 | 33.80940 | -84.07883 | 3278 ft | 113 kts | 206° |
| 2026-05-08 15:40 | 33.80242 | -84.08363 | 3176 ft | 112 kts | 204° |
| 2026-05-08 15:40 | 33.79524 | -84.08809 | 3082 ft | 113 kts | 203° |
| 2026-05-08 15:40 | 33.78840 | -84.09253 | 3088 ft | 109 kts | 204° |
| 2026-05-08 15:41 | 33.78166 | -84.09665 | 3090 ft | 103 kts | 199° |
| 2026-05-08 15:41 | 33.77522 | -84.10039 | 3088 ft | 99 kts | 197° |
| 2026-05-08 15:41 | 33.76909 | -84.10336 | 3102 ft | 99 kts | 203° |
| 2026-05-08 15:41 | 33.76254 | -84.10743 | 2980 ft | 107 kts | 203° |
| 2026-05-08 15:42 | 33.75986 | -84.10921 | 2933 ft | 109 kts | 203° |
| 2026-05-08 15:42 | 33.75897 | -84.10976 | 2928 ft | 109 kts | 204° |
| 2026-05-08 15:42 | 33.75300 | -84.11324 | 2970 ft | 104 kts | 201° |
| 2026-05-08 15:42 | 33.74648 | -84.11656 | 3038 ft | 95 kts | 197° |
| 2026-05-08 15:43 | 33.74074 | -84.11984 | 3154 ft | 89 kts | 199° |
| 2026-05-08 15:43 | 33.73480 | -84.12298 | 3157 ft | 99 kts | 198° |
| 2026-05-08 15:43 | 33.72839 | -84.12589 | 3228 ft | 99 kts | 199° |
| 2026-05-08 15:43 | 33.72197 | -84.12948 | 3264 ft | 102 kts | 202° |
| 2026-05-08 15:44 | 33.71535 | -84.13318 | 3234 ft | 102 kts | 191° |
| 2026-05-08 15:44 | 33.70893 | -84.13594 | 3280 ft | 99 kts | 195° |
| 2026-05-08 15:44 | 33.70253 | -84.13831 | 3356 ft | 97 kts | 182° |
| 2026-05-08 15:44 | 33.69582 | -84.13873 | 3417 ft | 96 kts | 186° |
| 2026-05-08 15:45 | 33.68916 | -84.14074 | 3344 ft | 109 kts | 192° |
| 2026-05-08 15:45 | 33.68212 | -84.14502 | 3089 ft | 124 kts | 210° |
| 2026-05-08 15:45 | 33.67483 | -84.15094 | 2803 ft | 126 kts | 206° |
| 2026-05-08 15:45 | 33.66677 | -84.15467 | 2542 ft | 123 kts | 194° |
| 2026-05-08 15:46 | 33.65910 | -84.15777 | 2543 ft | 113 kts | 193° |
| 2026-05-08 15:46 | 33.65123 | -84.16115 | 2389 ft | 118 kts | 198° |
| 2026-05-08 15:46 | 33.64964 | -84.16198 | 2354 ft | 119 kts | 198° |
| 2026-05-08 15:46 | 33.64242 | -84.16654 | 2280 ft | 118 kts | 204° |
| 2026-05-08 15:47 | 33.63552 | -84.17139 | 2242 ft | 113 kts | 202° |
| 2026-05-08 15:47 | 33.62827 | -84.17498 | 2210 ft | 111 kts | 197° |
| 2026-05-08 15:47 | 33.62128 | -84.17848 | 2227 ft | 107 kts | 201° |
| 2026-05-08 15:47 | 33.61480 | -84.18270 | 2240 ft | 104 kts | 206° |
| 2026-05-08 15:48 | 33.60467 | -84.18984 | 2138 ft | 111 kts | 208° |
| 2026-05-08 15:48 | 33.60465 | -84.18985 | 2137 ft | 111 kts | 207° |
| 2026-05-08 15:48 | 33.59758 | -84.19078 | 1986 ft | 108 kts | 144° |
| 2026-05-08 15:49 | 33.59458 | -84.18253 | 1739 ft | 116 kts | 92° |
| 2026-05-08 15:49 | 33.59295 | -84.17344 | 1560 ft | 111 kts | 117° |
| 2026-05-08 15:49 | 33.58906 | -84.16595 | 1445 ft | 107 kts | 126° |
| 2026-05-08 15:49 | 33.58404 | -84.15999 | 1504 ft | 94 kts | 146° |
| 2026-05-08 15:50 | 33.57839 | -84.15623 | 1602 ft | 90 kts | 152° |
| 2026-05-08 15:50 | 33.57228 | -84.15404 | 1612 ft | 97 kts | 169° |
| 2026-05-08 15:50 | 33.56574 | -84.15313 | 1717 ft | 91 kts | 172° |
| 2026-05-08 15:50 | 33.55945 | -84.15265 | 1838 ft | 89 kts | 174° |
| 2026-05-08 15:51 | 33.55337 | -84.15219 | 1914 ft | 88 kts | 173° |
| 2026-05-08 15:51 | 33.54730 | -84.15136 | 2010 ft | 87 kts | 168° |
| 2026-05-08 15:51 | 33.54136 | -84.15022 | 2038 ft | 88 kts | 168° |
| 2026-05-08 15:51 | 33.53535 | -84.14909 | 2129 ft | 84 kts | 165° |
| 2026-05-08 15:52 | 33.52943 | -84.14818 | 2198 ft | 86 kts | 168° |
| 2026-05-08 15:52 | 33.52373 | -84.14744 | 2339 ft | 81 kts | 163° |
| 2026-05-08 15:52 | 33.51772 | -84.14645 | 2374 ft | 84 kts | 164° |
| 2026-05-08 15:52 | 33.51179 | -84.14505 | 2395 ft | 91 kts | 161° |
| 2026-05-08 15:53 | 33.50531 | -84.14317 | 2343 ft | 100 kts | 165° |
| 2026-05-08 15:53 | 33.49812 | -84.14138 | 2218 ft | 107 kts | 164° |
| 2026-05-08 15:53 | 33.49066 | -84.13963 | 2097 ft | 108 kts | 165° |
| 2026-05-08 15:53 | 33.48339 | -84.13801 | 2024 ft | 105 kts | 166° |
| 2026-05-08 15:54 | 33.47649 | -84.13682 | 2058 ft | 98 kts | 168° |
| 2026-05-08 15:54 | 33.46991 | -84.13622 | 2101 ft | 93 kts | 171° |
| 2026-05-08 15:54 | 33.46323 | -84.13542 | 2065 ft | 99 kts | 169° |
| 2026-05-08 15:54 | 33.45609 | -84.13429 | 1973 ft | 106 kts | 167° |
| 2026-05-08 15:55 | 33.44896 | -84.13226 | 1954 ft | 104 kts | 162° |
| 2026-05-08 15:55 | 33.43554 | -84.12678 | 1962 ft | 98 kts | 157° |
| 2026-05-08 15:55 | 33.43531 | -84.12668 | 1954 ft | 99 kts | 157° |
| 2026-05-08 15:56 | 33.43280 | -84.12564 | 1911 ft | 103 kts | 160° |
| 2026-05-08 15:56 | 33.42707 | -84.12515 | 1868 ft | 105 kts | 182° |
| 2026-05-08 15:56 | 33.41998 | -84.12765 | 1765 ft | 112 kts | 194° |
| 2026-05-08 15:57 | 33.41229 | -84.13067 | 1534 ft | 117 kts | 195° |
| 2026-05-08 15:57 | 33.40475 | -84.13393 | 1450 ft | 112 kts | 198° |
| 2026-05-08 15:57 | 33.39776 | -84.13765 | 1429 ft | 108 kts | 206° |
| 2026-05-08 15:57 | 33.39131 | -84.14231 | 1388 ft | 107 kts | 214° |
| 2026-05-08 15:58 | 33.38929 | -84.14416 | 1362 ft | 108 kts | 218° |
| 2026-05-08 15:59 | 33.38790 | -84.14544 | 1354 ft | 108 kts | 212° |
| 2026-05-08 15:59 | 33.38372 | -84.14857 | 1392 ft | 104 kts | 207° |
| 2026-05-08 15:59 | 33.37690 | -84.15177 | 1214 ft | 114 kts | 220° |
| 2026-05-08 15:59 | 33.37230 | -84.15934 | 1121 ft | 107 kts | 238° |
| 2026-05-08 16:00 | 33.36589 | -84.16038 | 1088 ft | 94 kts | 133° |
| 2026-05-08 16:00 | 33.36428 | -84.15303 | 1055 ft | 98 kts | 90° |
| 2026-05-08 16:00 | 33.36637 | -84.14639 | 1208 ft | 84 kts | 40° |
| 2026-05-08 16:00 | 33.36847 | -84.14881 | 1124 ft | 91 kts | 278° |
| 2026-05-08 16:01 | 33.36832 | -84.15613 | 1063 ft | 75 kts | 252° |
| 2026-05-08 16:01 | 33.36678 | -84.16145 | 897 ft | 59 kts | 239° |
| 2026-05-08 16:01 | 33.36540 | -84.16516 | 838 ft | 35 kts | 240° |
| 2026-05-08 16:01 | 33.36485 | -84.16708 | 849 ft | 18 kts | 249° |
| 2026-05-08 16:02 | 33.36449 | -84.16827 | 848 ft | 7 kts | 235° |
| 2026-05-08 16:02 | 33.36401 | -84.16823 | 853 ft | 10 kts | 197° |
| 2026-05-08 16:02 | 33.36389 | -84.16811 | 848 ft | 0 kts | 340° |